Destin, FL (32540)

4:55 PM CDT on September 03, 2015 (GMT -0500)
Destin Water Users | | Change Station
CLOSE
Current Station
Personal Weather Station
Location: Destin, FL
Elevation: 26 ft
Nearby Weather Stations
Active Advisory: Areal Flood Advisory

Elev 26 ft 30.39 °N, 86.48 °W | Updated 2 seconds ago

Mostly Cloudy
Mostly Cloudy
86.1 °F
Feels Like 96 °F
N
4.2
Wind Variable Wind from SW
Gusts 9.0 mph

Today
High -- | Low -- °F
--% Chance of Precip.
Yesterday
High -- | Low -- °F
Precip. -- in
6:23 AM 7:06 PM
Waning Gibbous, 66% visible
Pressure 29.94 in
Visibility 10.0 miles
Clouds Mostly Cloudy 1700 ft
Mostly Cloudy 2100 ft
Heat Index 96 °F
Dew Point 76 °F
Humidity 72%
Rainfall 0.00 in
Snow Depth Not available.
UV 2 out of 12
Pollen 7.40 out of 12
Air Quality Not available.
Flu Activity Not available.
SPECI KDTS 032141Z AUTO 24011G17KT 10SM BKN017 BKN021 30/25 A2994 RMK AO2 T03000250 TSNO
Pressure 29.94 in
Visibility 10.0 miles
Clouds Mostly Cloudy 1700 ft
Mostly Cloudy 2100 ft
Heat Index 96 °F
Dew Point 76 °F
Humidity 72%
Rainfall 0.00 in
Snow Depth Not available.
UV 2 out of 12
Pollen 7.40 out of 12
Air Quality Not available.
Flu Activity Not available.
SPECI KDTS 032141Z AUTO 24011G17KT 10SM BKN017 BKN021 30/25 A2994 RMK AO2 T03000250 TSNO

10-Day Weather Forecast

×

Almanac

Astronomy

Sep. 03, 2015 Rise Set
Actual Time
Civil Twilight
Nautical Twilight
Astronomical Twilight
Moon
Length of Visible Light
Length of Day
Tomorrow will be .
, % of the Moon is Illuminated

Today's Extremes

State Highs State Lows

Community

WunderPhotos

Upload Photos

1,852,045 photos uploaded!

WunderBlogs® & News

Nearby

Air Quality

  Air Quality AQ Index Pollutant
Not available.

Snow Depth

Station Depth Elevation

Earthquake Activity

City Distance Mag. Time & Date
Minimum magnitude displayed is 2.5.

Coastal Water Temperatures

Place Temperature

Stations

Nearby Weather Stations

Station Location Temp. Windchill Dew Point Humidity Wind Precip. Elev Updated Type
                   
Areal Flood Advisory
Statement as of 4:48 PM CDT on September 03, 2015

The National Weather Service in Mobile has issued a

* Urban and Small Stream Flood Advisory for...
central Okaloosa County in northwestern Florida...

* until 645 PM CDT

* at 447 PM CDT... Doppler radar indicated heavy rain due to
thunderstorms. Reports of 1.5 inches in just the last hour and
still raining heavily just southwest of creswtview. This could
cause Urban and Small Stream flooding in the advisory area.

* Some locations that will experience flooding include...
Crestview and Baker.

Lat... Lon 3083 8678 3082 8645 3062 8651 3062 8665
      3069 8679